Time;durP1;ratioP1;P1;durP2;ratioP2;P2;SDS_P1;SDS_P2;PMS_P1;PMS_P2;Temp;Humidity;BMP_temperature;BMP_pressure;BME280_temperature;BME280_humidity;BME280_pressure;Samples;Min_cycle;Max_cycle;Signal;HPM_P1;HPM_P2
2022/08/07 00:00:15;;;;;;;;;;;;;;;;;;1029848;28;2964;-50
2022/08/07 00:01:05;;;;;;;;;;;;;;;;;;1033227;28;1575;-50
2022/08/07 00:01:36;;;;;;;;;;;;;;;;;;1033477;28;1422;-48
2022/08/07 00:02:06;;;;;;;;;;;;;;;;;;1033688;28;1659;-51
2022/08/07 00:02:36;;;;;;;;;;;;;;;;;;1031705;28;2081;-50
2022/08/07 00:03:07;;;;;;;;;;;;;;;;;;1028949;28;3326;-51
2022/08/07 00:03:38;;;;;;;;;;;;;;;;;;1029802;28;2979;-50
2022/08/07 00:04:08;;;;;;;;;;;;;;;;;;1030480;28;2217;-49
2022/08/07 00:04:38;;;;;;;;;;;;;;;;;;1030306;28;1940;-48
2022/08/07 00:05:08;;;;;;;;;;;;;;;;;;1029667;28;2524;-51
2022/08/07 00:05:39;;;;;;;;;;;;;;;;;;1030218;28;2256;-51
2022/08/07 00:06:09;;;;;;;;;;;;;;;;;;1030045;28;1697;-49
2022/08/07 00:06:39;;;;;;;;;;;;;;;;;;1029340;28;3297;-50
2022/08/07 00:07:09;;;;;;;;;;;;;;;;;;1029939;28;1696;-49
2022/08/07 00:07:40;;;;;;;;;;;;;;;;;;1029484;28;3196;-49
2022/08/07 00:08:10;;;;;;;;;;;;;;;;;;1028112;28;3312;-51
2022/08/07 00:08:40;;;;;;;;;;;;;;;;;;1030449;28;1486;-52
2022/08/07 00:09:11;;;;;;;;;;;;;;;;;;1028871;28;2673;-49
2022/08/07 00:09:41;;;;;;;;;;;;;;;;;;1030457;28;1469;-49
2022/08/07 00:10:11;;;;;;;;;;;;;;;;;;1029846;28;2205;-50
2022/08/07 00:10:42;;;;;;;;;;;;;;;;;;1030180;28;1982;-50
2022/08/07 00:11:12;;;;;;;;;;;;;;;;;;1029331;28;1744;-51
2022/08/07 00:11:43;;;;;;;;;;;;;;;;;;1030375;28;1722;-51
2022/08/07 00:12:13;;;;;;;;;;;;;;;;;;1029032;28;3149;-51
2022/08/07 00:12:43;;;;;;;;;;;;;;;;;;1028868;28;3210;-51
2022/08/07 00:13:14;;;;;;;;;;;;;;;;;;1027538;28;3796;-48
2022/08/07 00:13:46;;;;;;;;;;;;;;;;;;1029587;28;1742;-49
2022/08/07 00:14:16;;;;;;;;;;;;;;;;;;1029809;28;1677;-52
2022/08/07 00:14:47;;;;;;;;;;;;;;;;;;1029995;28;1418;-48
2022/08/07 00:15:17;;;;;;;;;;;;;;;;;;1029467;28;3521;-51
2022/08/07 00:15:48;;;;;;;;;;;;;;;;;;1029580;28;2562;-50
2022/08/07 00:16:19;;;;;;;;;;;;;;;;;;1028729;28;3311;-53
2022/08/07 00:16:49;;;;;;;;;;;;;;;;;;1029494;28;3330;-52
2022/08/07 00:17:19;;;;;;;;;;;;;;;;;;1029177;28;2660;-50
2022/08/07 00:17:50;;;;;;;;;;;;;;;;;;1029355;28;3861;-54
2022/08/07 00:18:21;;;;;;;;;;;;;;;;;;1029665;28;2358;-51
2022/08/07 00:18:52;;;;;;;;;;;;;;;;;;1030343;28;3489;-51
2022/08/07 00:19:35;;;;;;;;;;;;;;;;;;1028877;28;2211;-52
2022/08/07 00:20:12;;;;;;;;;;;;;;;;;;1029831;28;1699;-50
2022/08/07 00:20:43;;;;;;;;;;;;;;;;;;1030055;28;1950;-50
2022/08/07 00:21:13;;;;;;;;;;;;;;;;;;1030247;28;1351;-53
2022/08/07 00:21:43;;;;;;;;;;;;;;;;;;1029692;28;1864;-49
2022/08/07 00:22:14;;;;;;;;;;;;;;;;;;1030221;28;1559;-52
2022/08/07 00:22:44;;;;;;;;;;;;;;;;;;1028264;28;3138;-49
2022/08/07 00:23:14;;;;;;;;;;;;;;;;;;1030426;28;1602;-50
2022/08/07 00:23:44;;;;;;;;;;;;;;;;;;1029861;28;2027;-52
2022/08/07 00:24:15;;;;;;;;;;;;;;;;;;1030171;28;1636;-51
2022/08/07 00:24:45;;;;;;;;;;;;;;;;;;1030118;28;2128;-49
2022/08/07 00:25:15;;;;;;;;;;;;;;;;;;1028546;28;3256;-49
2022/08/07 00:25:46;;;;;;;;;;;;;;;;;;1029779;28;1843;-52
2022/08/07 00:26:16;;;;;;;;;;;;;;;;;;1029641;28;1633;-48
2022/08/07 00:26:46;;;;;;;;;;;;;;;;;;1029960;28;1954;-52
2022/08/07 00:27:16;;;;;;;;;;;;;;;;;;1030183;28;1846;-50
2022/08/07 00:27:47;;;;;;;;;;;;;;;;;;1029256;28;2175;-50
2022/08/07 00:28:18;;;;;;;;;;;;;;;;;;1030416;28;1612;-50
2022/08/07 00:28:48;;;;;;;;;;;;;;;;;;1029939;28;1740;-50
2022/08/07 00:29:21;;;;;;;;;;;;;;;;;;1030089;28;2097;-49
2022/08/07 00:29:51;;;;;;;;;;;;;;;;;;1030065;28;2264;-52
2022/08/07 00:30:21;;;;;;;;;;;;;;;;;;1029611;28;2430;-47
2022/08/07 00:30:51;;;;;;;;;;;;;;;;;;1027088;28;3243;-53
2022/08/07 00:31:24;;;;;;;;;;;;;;;;;;1030151;28;1644;-52
2022/08/07 00:31:58;;;;;;;;;;;;;;;;;;1029635;28;1144;-50
2022/08/07 00:32:28;;;;;;;;;;;;;;;;;;1029833;28;2067;-50
2022/08/07 00:32:59;;;;;;;;;;;;;;;;;;1029742;28;2485;-50
2022/08/07 00:33:29;;;;;;;;;;;;;;;;;;1030323;28;1612;-49
2022/08/07 00:34:07;;;;;;;;;;;;;;;;;;1029009;28;2706;-50
2022/08/07 00:34:37;;;;;;;;;;;;;;;;;;1029952;28;3759;-50
2022/08/07 00:35:07;;;;;;;;;;;;;;;;;;1030178;28;1804;-48
2022/08/07 00:35:37;;;;;;;;;;;;;;;;;;1030031;28;1756;-47
2022/08/07 00:36:08;;;;;;;;;;;;;;;;;;1030005;28;1666;-47
2022/08/07 00:36:38;;;;;;;;;;;;;;;;;;1029020;28;2942;-51
2022/08/07 00:37:09;;;;;;;;;;;;;;;;;;1029324;28;2210;-50
2022/08/07 00:37:39;;;;;;;;;;;;;;;;;;1030651;28;1979;-48
2022/08/07 00:38:09;;;;;;;;;;;;;;;;;;1029634;28;1969;-50
2022/08/07 00:38:39;;;;;;;;;;;;;;;;;;1030180;28;1294;-49
2022/08/07 00:39:11;;;;;;;;;;;;;;;;;;1029427;28;2307;-50
2022/08/07 00:39:41;;;;;;;;;;;;;;;;;;1030623;28;1228;-49
2022/08/07 00:40:12;;;;;;;;;;;;;;;;;;1028582;28;3271;-50
2022/08/07 00:40:42;;;;;;;;;;;;;;;;;;1033373;28;3524;-50
2022/08/07 00:41:12;;;;;;;;;;;;;;;;;;1032242;28;3647;-52
2022/08/07 00:41:50;;;;;;;;;;;;;;;;;;1033402;28;1745;-49
2022/08/07 00:42:21;;;;;;;;;;;;;;;;;;1031921;28;1699;-50
2022/08/07 00:42:51;;;;;;;;;;;;;;;;;;1029560;28;3260;-50
2022/08/07 00:43:21;;;;;;;;;;;;;;;;;;1030075;28;1989;-50
2022/08/07 00:43:51;;;;;;;;;;;;;;;;;;1030336;28;1702;-52
2022/08/07 00:44:22;;;;;;;;;;;;;;;;;;1029018;28;3430;-50
2022/08/07 00:44:53;;;;;;;;;;;;;;;;;;1030744;28;1699;-51
2022/08/07 00:45:23;;;;;;;;;;;;;;;;;;1029391;28;2216;-49
2022/08/07 00:45:53;;;;;;;;;;;;;;;;;;1030254;28;1662;-48
2022/08/07 00:46:25;;;;;;;;;;;;;;;;;;1029901;28;1637;-50
2022/08/07 00:46:55;;;;;;;;;;;;;;;;;;1029602;28;1840;-47
2022/08/07 00:47:25;;;;;;;;;;;;;;;;;;1029643;28;4170;-50
2022/08/07 00:47:55;;;;;;;;;;;;;;;;;;1030161;28;1700;-51
2022/08/07 00:48:26;;;;;;;;;;;;;;;;;;1029673;28;1950;-50
2022/08/07 00:49:00;;;;;;;;;;;;;;;;;;1030164;28;1889;-49
2022/08/07 00:49:30;;;;;;;;;;;;;;;;;;1029550;28;2131;-48
2022/08/07 00:50:01;;;;;;;;;;;;;;;;;;1030271;28;1360;-51
2022/08/07 00:50:31;;;;;;;;;;;;;;;;;;1029478;28;1782;-50
2022/08/07 00:51:02;;;;;;;;;;;;;;;;;;1030101;28;1711;-50
2022/08/07 00:51:32;;;;;;;;;;;;;;;;;;1029534;28;1721;-52
2022/08/07 00:52:06;;;;;;;;;;;;;;;;;;1029158;28;3469;-50
2022/08/07 00:52:36;;;;;;;;;;;;;;;;;;1029507;28;1974;-48
2022/08/07 00:53:06;;;;;;;;;;;;;;;;;;1029355;28;2365;-51
2022/08/07 00:53:37;;;;;;;;;;;;;;;;;;1029983;28;1971;-51
2022/08/07 00:54:07;;;;;;;;;;;;;;;;;;1029553;28;2204;-51
2022/08/07 00:54:37;;;;;;;;;;;;;;;;;;1028324;28;3007;-51
2022/08/07 00:55:08;;;;;;;;;;;;;;;;;;1030274;28;1502;-49
2022/08/07 00:55:39;;;;;;;;;;;;;;;;;;1033349;28;1815;-50
2022/08/07 00:56:11;;;;;;;;;;;;;;;;;;1034066;28;1680;-50
2022/08/07 00:56:41;;;;;;;;;;;;;;;;;;1033246;28;1719;-48
2022/08/07 00:57:12;;;;;;;;;;;;;;;;;;1032911;28;2155;-48
2022/08/07 00:57:42;;;;;;;;;;;;;;;;;;1029355;28;1611;-50
2022/08/07 00:58:13;;;;;;;;;;;;;;;;;;1030082;28;1705;-53
2022/08/07 00:58:43;;;;;;;;;;;;;;;;;;1030036;28;1755;-49
2022/08/07 00:59:14;;;;;;;;;;;;;;;;;;1029248;28;2203;-51
2022/08/07 00:59:44;;;;;;;;;;;;;;;;;;1029957;28;1653;-50
2022/08/07 01:00:15;;;;;;;;;;;;;;;;;;1029277;28;2227;-51
2022/08/07 01:00:45;;;;;;;;;;;;;;;;;;1029813;28;2242;-50
2022/08/07 01:01:16;;;;;;;;;;;;;;;;;;1029815;28;1671;-50
2022/08/07 01:01:47;;;;;;;;;;;;;;;;;;1033244;28;2245;-49
2022/08/07 01:02:18;;;;;;;;;;;;;;;;;;1032760;28;3054;-49
2022/08/07 01:02:49;;;;;;;;;;;;;;;;;;1032230;28;3417;-49
2022/08/07 01:03:20;;;;;;;;;;;;;;;;;;1032692;28;2960;-50
2022/08/07 01:03:50;;;;;;;;;;;;;;;;;;1029609;28;3029;-49
2022/08/07 01:04:21;;;;;;;;;;;;;;;;;;1030324;28;1648;-50
2022/08/07 01:04:51;;;;;;;;;;;;;;;;;;1029517;28;3095;-50
2022/08/07 01:05:21;;;;;;;;;;;;;;;;;;1030242;28;1621;-50
2022/08/07 01:05:54;;;;;;;;;;;;;;;;;;1030692;28;1617;-48
2022/08/07 01:06:25;;;;;;;;;;;;;;;;;;1029680;28;1598;-51
2022/08/07 01:06:55;;;;;;;;;;;;;;;;;;1028959;28;1690;-47
2022/08/07 01:07:26;;;;;;;;;;;;;;;;;;1029152;28;3146;-52
2022/08/07 01:07:56;;;;;;;;;;;;;;;;;;1028915;28;2270;-50
2022/08/07 01:08:27;;;;;;;;;;;;;;;;;;1028389;28;3033;-50
2022/08/07 01:08:58;;;;;;;;;;;;;;;;;;1029725;28;3249;-50
2022/08/07 01:09:29;;;;;;;;;;;;;;;;;;1032531;28;2256;-51
2022/08/07 01:09:59;;;;;;;;;;;;;;;;;;1032642;28;1931;-51
2022/08/07 01:10:30;;;;;;;;;;;;;;;;;;1033580;28;1423;-52
2022/08/07 01:11:01;;;;;;;;;;;;;;;;;;1033296;28;1757;-51
2022/08/07 01:11:31;;;;;;;;;;;;;;;;;;1029861;28;1690;-49
2022/08/07 01:12:02;;;;;;;;;;;;;;;;;;1028755;28;2843;-51
2022/08/07 01:12:33;;;;;;;;;;;;;;;;;;1028823;28;1605;-52
2022/08/07 01:13:03;;;;;;;;;;;;;;;;;;1029744;28;3726;-48
2022/08/07 01:13:34;;;;;;;;;;;;;;;;;;1028640;28;3193;-49
2022/08/07 01:14:04;;;;;;;;;;;;;;;;;;1030742;28;1568;-51
2022/08/07 01:14:34;;;;;;;;;;;;;;;;;;1029323;28;1705;-48
2022/08/07 01:15:05;;;;;;;;;;;;;;;;;;1029664;28;2438;-52
2022/08/07 01:15:35;;;;;;;;;;;;;;;;;;1029448;28;3425;-50
2022/08/07 01:16:06;;;;;;;;;;;;;;;;;;1029410;28;2561;-52
2022/08/07 01:16:37;;;;;;;;;;;;;;;;;;1029612;28;1853;-51
2022/08/07 01:17:08;;;;;;;;;;;;;;;;;;1030541;28;1687;-51
2022/08/07 01:17:38;;;;;;;;;;;;;;;;;;1028360;28;3608;-49
2022/08/07 01:18:09;;;;;;;;;;;;;;;;;;1030367;28;1590;-48
2022/08/07 01:18:39;;;;;;;;;;;;;;;;;;1028764;28;3288;-50
2022/08/07 01:19:23;;;;;;;;;;;;;;;;;;1030166;28;2167;-51
2022/08/07 01:20:04;;;;;;;;;;;;;;;;;;1025709;28;1872;-50
2022/08/07 01:20:36;;;;;;;;;;;;;;;;;;1021654;28;1714;-51
2022/08/07 01:21:10;;;;;;;;;;;;;;;;;;1021535;28;1605;-47
2022/08/07 01:21:40;;;;;;;;;;;;;;;;;;1021178;28;1915;-50
2022/08/07 01:22:11;;;;;;;;;;;;;;;;;;1020901;28;3261;-48
2022/08/07 01:22:41;;;;;;;;;;;;;;;;;;1021556;28;1913;-49
2022/08/07 01:23:11;;;;;;;;;;;;;;;;;;1019845;28;3384;-49
2022/08/07 01:23:43;;;;;;;;;;;;;;;;;;1020989;28;2293;-49
2022/08/07 01:24:14;;;;;;;;;;;;;;;;;;1025615;28;2198;-49
2022/08/07 01:24:45;;;;;;;;;;;;;;;;;;1026480;28;1916;-51
2022/08/07 01:25:15;;;;;;;;;;;;;;;;;;1025332;28;1656;-49
2022/08/07 01:25:46;;;;;;;;;;;;;;;;;;1026527;28;1909;-49
2022/08/07 01:26:17;;;;;;;;;;;;;;;;;;1025473;28;1730;-52
2022/08/07 01:26:49;;;;;;;;;;;;;;;;;;1026536;28;1815;-52
2022/08/07 01:27:19;;;;;;;;;;;;;;;;;;1025155;28;1648;-51
2022/08/07 01:27:49;;;;;;;;;;;;;;;;;;1026543;28;1373;-49
2022/08/07 01:28:20;;;;;;;;;;;;;;;;;;1025193;28;1639;-51
2022/08/07 01:28:50;;;;;;;;;;;;;;;;;;1025584;28;2745;-50
2022/08/07 01:29:24;;;;;;;;;;;;;;;;;;1024713;28;2198;-52
2022/08/07 01:29:55;;;;;;;;;;;;;;;;;;1025514;28;1841;-53
2022/08/07 01:30:25;;;;;;;;;;;;;;;;;;1025510;28;2530;-52
2022/08/07 01:30:56;;;;;;;;;;;;;;;;;;1025567;28;1579;-51
2022/08/07 01:31:30;;;;;;;;;;;;;;;;;;1021222;28;2193;-51
2022/08/07 01:32:00;;;;;;;;;;;;;;;;;;1017634;29;3376;-50
2022/08/07 01:32:37;;;;;;;;;;;;;;;;;;1017832;29;1763;-50
2022/08/07 01:33:08;;;;;;;;;;;;;;;;;;1018126;28;3246;-51
2022/08/07 01:33:38;;;;;;;;;;;;;;;;;;1022002;28;3502;-51
2022/08/07 01:34:09;;;;;;;;;;;;;;;;;;1026150;28;1664;-50
2022/08/07 01:34:43;;;;;;;;;;;;;;;;;;1025564;28;1852;-49
2022/08/07 01:35:13;;;;;;;;;;;;;;;;;;1026403;28;4144;-50
2022/08/07 01:35:44;;;;;;;;;;;;;;;;;;1024671;28;2974;-50
2022/08/07 01:36:14;;;;;;;;;;;;;;;;;;1025971;28;2605;-49
2022/08/07 01:36:45;;;;;;;;;;;;;;;;;;1024921;28;1930;-48
2022/08/07 01:37:16;;;;;;;;;;;;;;;;;;1025153;28;3239;-50
2022/08/07 01:37:46;;;;;;;;;;;;;;;;;;1024288;28;3579;-50
2022/08/07 01:38:17;;;;;;;;;;;;;;;;;;1026146;28;2350;-50
2022/08/07 01:38:47;;;;;;;;;;;;;;;;;;1025046;28;1714;-51
2022/08/07 01:39:18;;;;;;;;;;;;;;;;;;1026617;28;2163;-52
2022/08/07 01:39:48;;;;;;;;;;;;;;;;;;1024917;28;3441;-52
2022/08/07 01:40:19;;;;;;;;;;;;;;;;;;1026571;28;1683;-51
2022/08/07 01:40:49;;;;;;;;;;;;;;;;;;1025262;28;1777;-48
2022/08/07 01:41:20;;;;;;;;;;;;;;;;;;1026340;28;1477;-48
2022/08/07 01:41:50;;;;;;;;;;;;;;;;;;1024853;28;1787;-50
2022/08/07 01:42:21;;;;;;;;;;;;;;;;;;1025474;28;2833;-50
2022/08/07 01:42:51;;;;;;;;;;;;;;;;;;1025201;28;1948;-50
2022/08/07 01:43:22;;;;;;;;;;;;;;;;;;1025164;28;2760;-49
2022/08/07 01:43:52;;;;;;;;;;;;;;;;;;1024994;28;3131;-51
2022/08/07 01:44:23;;;;;;;;;;;;;;;;;;1026386;28;1852;-49
2022/08/07 01:44:53;;;;;;;;;;;;;;;;;;1025487;28;1906;-50
2022/08/07 01:45:25;;;;;;;;;;;;;;;;;;1025151;28;2867;-50
2022/08/07 01:45:56;;;;;;;;;;;;;;;;;;1025141;28;1965;-49
2022/08/07 01:46:26;;;;;;;;;;;;;;;;;;1026483;28;1633;-49
2022/08/07 01:46:57;;;;;;;;;;;;;;;;;;1025262;28;1643;-50
2022/08/07 01:47:27;;;;;;;;;;;;;;;;;;1026203;28;2730;-49
2022/08/07 01:47:58;;;;;;;;;;;;;;;;;;1025361;28;1956;-48
2022/08/07 01:48:31;;;;;;;;;;;;;;;;;;1026368;28;1731;-51
2022/08/07 01:49:01;;;;;;;;;;;;;;;;;;1023714;28;3696;-52
2022/08/07 01:49:31;;;;;;;;;;;;;;;;;;1026145;28;2314;-50
2022/08/07 01:50:02;;;;;;;;;;;;;;;;;;1024959;28;2345;-51
2022/08/07 01:50:35;;;;;;;;;;;;;;;;;;1026527;28;1598;-49
2022/08/07 01:51:06;;;;;;;;;;;;;;;;;;1026653;28;1829;-52
2022/08/07 01:51:38;;;;;;;;;;;;;;;;;;1025327;28;1646;-49
2022/08/07 01:52:09;;;;;;;;;;;;;;;;;;1025955;28;2838;-48
2022/08/07 01:52:40;;;;;;;;;;;;;;;;;;1025789;28;2704;-48
2022/08/07 01:53:12;;;;;;;;;;;;;;;;;;1026282;28;2462;-50
2022/08/07 01:53:43;;;;;;;;;;;;;;;;;;1027388;28;1887;-53
2022/08/07 01:54:14;;;;;;;;;;;;;;;;;;1025755;28;1439;-52
2022/08/07 01:54:45;;;;;;;;;;;;;;;;;;1026934;28;1994;-51
2022/08/07 01:55:15;;;;;;;;;;;;;;;;;;1020946;29;2521;-51
2022/08/07 01:55:48;;;;;;;;;;;;;;;;;;1021831;28;2866;-51
2022/08/07 01:56:25;;;;;;;;;;;;;;;;;;1021584;29;1874;-51
2022/08/07 01:57:01;;;;;;;;;;;;;;;;;;1023947;28;1233;-48
2022/08/07 01:57:33;;;;;;;;;;;;;;;;;;1026986;28;2275;-49
2022/08/07 01:58:06;;;;;;;;;;;;;;;;;;1026285;28;1733;-49
2022/08/07 01:58:38;;;;;;;;;;;;;;;;;;1027286;28;1696;-50
2022/08/07 01:59:13;;;;;;;;;;;;;;;;;;1026050;28;1669;-49
2022/08/07 01:59:45;;;;;;;;;;;;;;;;;;1025800;28;2603;-53
2022/08/07 02:00:16;;;;;;;;;;;;;;;;;;1025599;28;3225;-49
2022/08/07 02:00:49;;;;;;;;;;;;;;;;;;1026709;28;1706;-51
2022/08/07 02:01:24;;;;;;;;;;;;;;;;;;1021557;29;1702;-50
2022/08/07 02:02:00;;;;;;;;;;;;;;;;;;1022697;29;1354;-52
2022/08/07 02:02:37;;;;;;;;;;;;;;;;;;1021644;28;3122;-48
2022/08/07 02:03:10;;;;;;;;;;;;;;;;;;1024924;28;1663;-50
2022/08/07 02:03:44;;;;;;;;;;;;;;;;;;1025891;28;3641;-52
2022/08/07 02:04:21;;;;;;;;;;;;;;;;;;1022224;28;1683;-48
2022/08/07 02:05:01;;;;;;;;;;;;;;;;;;1022745;28;1915;-51
2022/08/07 02:05:33;;;;;;;;;;;;;;;;;;1021831;28;2245;-53
2022/08/07 02:06:05;;;;;;;;;;;;;;;;;;1025601;28;1401;-51
2022/08/07 02:06:36;;;;;;;;;;;;;;;;;;1025992;28;1840;-52
2022/08/07 02:07:08;;;;;;;;;;;;;;;;;;1026591;28;1299;-52
2022/08/07 02:07:41;;;;;;;;;;;;;;;;;;1024431;28;3412;-49
2022/08/07 02:08:13;;;;;;;;;;;;;;;;;;1026498;28;3346;-52
2022/08/07 02:08:44;;;;;;;;;;;;;;;;;;1022706;28;1716;-49
2022/08/07 02:09:16;;;;;;;;;;;;;;;;;;1020804;28;3168;-51
2022/08/07 02:09:54;;;;;;;;;;;;;;;;;;1021417;28;2315;-50
2022/08/07 02:10:25;;;;;;;;;;;;;;;;;;1023002;28;3844;-50
2022/08/07 02:10:58;;;;;;;;;;;;;;;;;;1026404;28;3815;-48
2022/08/07 02:11:29;;;;;;;;;;;;;;;;;;1025446;28;3061;-48
2022/08/07 02:12:15;;;;;;;;;;;;;;;;;;1026696;28;1611;-50
2022/08/07 02:12:47;;;;;;;;;;;;;;;;;;1024992;28;2510;-51
2022/08/07 02:13:20;;;;;;;;;;;;;;;;;;1026915;28;1676;-51
2022/08/07 02:13:52;;;;;;;;;;;;;;;;;;1026721;28;1532;-50
2022/08/07 02:14:25;;;;;;;;;;;;;;;;;;1025699;28;1888;-48
2022/08/07 02:14:55;;;;;;;;;;;;;;;;;;1027159;28;1582;-50
2022/08/07 02:15:26;;;;;;;;;;;;;;;;;;1025422;28;2884;-49
2022/08/07 02:15:58;;;;;;;;;;;;;;;;;;1027115;28;2559;-50
2022/08/07 02:16:30;;;;;;;;;;;;;;;;;;1026080;28;1423;-51
2022/08/07 02:17:01;;;;;;;;;;;;;;;;;;1026165;28;1845;-50
2022/08/07 02:17:32;;;;;;;;;;;;;;;;;;1026340;28;3421;-49
2022/08/07 02:18:02;;;;;;;;;;;;;;;;;;1025032;28;2502;-49
2022/08/07 02:18:34;;;;;;;;;;;;;;;;;;1026640;28;2010;-50
2022/08/07 02:19:06;;;;;;;;;;;;;;;;;;1026918;28;1656;-50
2022/08/07 02:19:51;;;;;;;;;;;;;;;;;;1027235;28;2482;-52
2022/08/07 02:20:30;;;;;;;;;;;;;;;;;;1030172;28;1616;-52
2022/08/07 02:21:02;;;;;;;;;;;;;;;;;;1030231;28;2260;-50
2022/08/07 02:21:34;;;;;;;;;;;;;;;;;;1030707;28;1568;-50
2022/08/07 02:22:04;;;;;;;;;;;;;;;;;;1030176;28;1939;-49
2022/08/07 02:22:35;;;;;;;;;;;;;;;;;;1029012;28;3615;-48
2022/08/07 02:23:06;;;;;;;;;;;;;;;;;;1028949;28;3102;-53
2022/08/07 02:23:37;;;;;;;;;;;;;;;;;;1030633;28;1602;-48
2022/08/07 02:24:08;;;;;;;;;;;;;;;;;;1030322;28;1943;-49
2022/08/07 02:24:42;;;;;;;;;;;;;;;;;;1030432;28;2005;-51
2022/08/07 02:25:14;;;;;;;;;;;;;;;;;;1029987;28;1718;-53
2022/08/07 02:25:44;;;;;;;;;;;;;;;;;;1030330;28;1630;-52
2022/08/07 02:26:15;;;;;;;;;;;;;;;;;;1030147;28;2337;-50
2022/08/07 02:26:46;;;;;;;;;;;;;;;;;;1031000;28;1673;-48
2022/08/07 02:27:18;;;;;;;;;;;;;;;;;;1029689;28;2994;-49
2022/08/07 02:27:48;;;;;;;;;;;;;;;;;;1030054;28;2170;-50
2022/08/07 02:28:19;;;;;;;;;;;;;;;;;;1028773;28;3256;-49
2022/08/07 02:28:51;;;;;;;;;;;;;;;;;;1030433;28;1421;-52
2022/08/07 02:29:22;;;;;;;;;;;;;;;;;;1030077;28;2200;-50
2022/08/07 02:29:54;;;;;;;;;;;;;;;;;;1030671;28;2453;-51
2022/08/07 02:30:25;;;;;;;;;;;;;;;;;;1029153;28;2535;-50
2022/08/07 02:30:56;;;;;;;;;;;;;;;;;;1029295;28;1893;-47
2022/08/07 02:31:28;;;;;;;;;;;;;;;;;;1030640;28;1855;-48
2022/08/07 02:31:59;;;;;;;;;;;;;;;;;;1029594;28;1663;-49
2022/08/07 02:32:30;;;;;;;;;;;;;;;;;;1030325;28;1692;-48
2022/08/07 02:33:01;;;;;;;;;;;;;;;;;;1029436;28;3316;-51
2022/08/07 02:33:32;;;;;;;;;;;;;;;;;;1030174;28;1957;-49
2022/08/07 02:34:03;;;;;;;;;;;;;;;;;;1028605;28;1710;-50
2022/08/07 02:34:34;;;;;;;;;;;;;;;;;;1029479;28;1889;-49
2022/08/07 02:35:06;;;;;;;;;;;;;;;;;;1030552;28;1718;-50
2022/08/07 02:35:37;;;;;;;;;;;;;;;;;;1029557;28;1708;-50
2022/08/07 02:36:08;;;;;;;;;;;;;;;;;;1028737;28;3291;-50
2022/08/07 02:36:39;;;;;;;;;;;;;;;;;;1028671;28;2694;-50
2022/08/07 02:37:10;;;;;;;;;;;;;;;;;;1029768;28;1809;-49
2022/08/07 02:37:41;;;;;;;;;;;;;;;;;;1029682;28;2983;-50
2022/08/07 02:38:13;;;;;;;;;;;;;;;;;;1029762;28;2480;-49
2022/08/07 02:38:44;;;;;;;;;;;;;;;;;;1030000;28;1713;-48
2022/08/07 02:39:15;;;;;;;;;;;;;;;;;;1030207;28;1855;-51
2022/08/07 02:39:46;;;;;;;;;;;;;;;;;;1029057;28;3330;-51
2022/08/07 02:40:16;;;;;;;;;;;;;;;;;;1029861;28;2375;-51
2022/08/07 02:40:47;;;;;;;;;;;;;;;;;;1033686;28;1864;-51
2022/08/07 02:41:17;;;;;;;;;;;;;;;;;;1034900;28;1783;-49
2022/08/07 02:41:51;;;;;;;;;;;;;;;;;;1032333;28;3039;-52
2022/08/07 02:42:22;;;;;;;;;;;;;;;;;;1034247;28;1737;-52
2022/08/07 02:42:53;;;;;;;;;;;;;;;;;;1030098;28;1841;-51
2022/08/07 02:43:25;;;;;;;;;;;;;;;;;;1033988;28;1655;-51
2022/08/07 02:43:57;;;;;;;;;;;;;;;;;;1033188;28;2210;-50
2022/08/07 02:44:28;;;;;;;;;;;;;;;;;;1034158;28;1431;-48
2022/08/07 02:45:00;;;;;;;;;;;;;;;;;;1033790;28;1848;-52
2022/08/07 02:45:30;;;;;;;;;;;;;;;;;;1029050;28;2493;-49
2022/08/07 02:46:02;;;;;;;;;;;;;;;;;;1029752;28;2195;-51
2022/08/07 02:46:34;;;;;;;;;;;;;;;;;;1030596;28;1617;-50
2022/08/07 02:47:05;;;;;;;;;;;;;;;;;;1029796;28;2363;-50
2022/08/07 02:47:35;;;;;;;;;;;;;;;;;;1030718;28;1684;-48
2022/08/07 02:48:06;;;;;;;;;;;;;;;;;;1028890;28;3247;-51
2022/08/07 02:48:37;;;;;;;;;;;;;;;;;;1030368;28;2270;-49
2022/08/07 02:49:07;;;;;;;;;;;;;;;;;;1029683;28;2461;-52
2022/08/07 02:49:38;;;;;;;;;;;;;;;;;;1030480;28;1684;-49
2022/08/07 02:50:08;;;;;;;;;;;;;;;;;;1028610;28;2549;-53
2022/08/07 02:50:41;;;;;;;;;;;;;;;;;;1029603;28;2709;-48
2022/08/07 02:51:13;;;;;;;;;;;;;;;;;;1029421;28;1854;-53
2022/08/07 02:51:45;;;;;;;;;;;;;;;;;;1026847;28;1093;-47
2022/08/07 02:52:18;;;;;;;;;;;;;;;;;;1028886;28;1961;-50
2022/08/07 02:52:57;;;;;;;;;;;;;;;;;;1030298;28;1715;-47
2022/08/07 02:53:31;;;;;;;;;;;;;;;;;;1029400;28;3290;-49
2022/08/07 02:54:01;;;;;;;;;;;;;;;;;;1030393;28;1743;-51
2022/08/07 02:54:32;;;;;;;;;;;;;;;;;;1030320;28;1664;-48
2022/08/07 02:55:18;;;;;;;;;;;;;;;;;;1030685;28;1697;-48
2022/08/07 02:55:49;;;;;;;;;;;;;;;;;;1031031;28;1700;-48
2022/08/07 02:56:21;;;;;;;;;;;;;;;;;;1029903;28;1595;-51
2022/08/07 02:56:52;;;;;;;;;;;;;;;;;;1030872;28;1727;-50
2022/08/07 02:57:23;;;;;;;;;;;;;;;;;;1030101;28;1589;-51
2022/08/07 02:57:57;;;;;;;;;;;;;;;;;;1034344;28;1591;-49
2022/08/07 02:58:29;;;;;;;;;;;;;;;;;;1034090;28;2304;-49
2022/08/07 02:59:01;;;;;;;;;;;;;;;;;;1033445;28;2142;-49
2022/08/07 02:59:33;;;;;;;;;;;;;;;;;;1032653;28;1906;-53
2022/08/07 03:00:04;;;;;;;;;;;;;;;;;;1029514;28;3000;-49
2022/08/07 03:00:34;;;;;;;;;;;;;;;;;;1029540;28;2695;-52
2022/08/07 03:01:05;;;;;;;;;;;;;;;;;;1030740;28;2121;-50
2022/08/07 03:01:38;;;;;;;;;;;;;;;;;;1030117;28;1352;-49
2022/08/07 03:02:09;;;;;;;;;;;;;;;;;;1030646;28;1453;-48
2022/08/07 03:02:39;;;;;;;;;;;;;;;;;;1029761;28;1712;-54
2022/08/07 03:03:10;;;;;;;;;;;;;;;;;;1031014;28;1612;-48
2022/08/07 03:03:41;;;;;;;;;;;;;;;;;;1029180;28;2143;-50
2022/08/07 03:04:12;;;;;;;;;;;;;;;;;;1030827;28;1689;-49
2022/08/07 03:04:50;;;;;;;;;;;;;;;;;;1034368;28;2099;-50
2022/08/07 03:05:21;;;;;;;;;;;;;;;;;;1032618;28;2335;-50
2022/08/07 03:05:52;;;;;;;;;;;;;;;;;;1034492;28;1556;-50
2022/08/07 03:06:23;;;;;;;;;;;;;;;;;;1032645;28;1670;-50
2022/08/07 03:06:54;;;;;;;;;;;;;;;;;;1030509;28;1391;-51
2022/08/07 03:07:25;;;;;;;;;;;;;;;;;;1029228;28;2302;-49
2022/08/07 03:07:55;;;;;;;;;;;;;;;;;;1028911;28;3338;-50
2022/08/07 03:08:26;;;;;;;;;;;;;;;;;;1032191;28;3295;-50
2022/08/07 03:08:56;;;;;;;;;;;;;;;;;;1034391;28;1718;-49
2022/08/07 03:09:27;;;;;;;;;;;;;;;;;;1032525;28;2347;-51
2022/08/07 03:09:58;;;;;;;;;;;;;;;;;;1033820;28;1584;-53
2022/08/07 03:10:28;;;;;;;;;;;;;;;;;;1032993;28;1878;-50
2022/08/07 03:11:00;;;;;;;;;;;;;;;;;;1034271;28;1793;-48
2022/08/07 03:11:31;;;;;;;;;;;;;;;;;;1033652;28;1583;-52
2022/08/07 03:12:05;;;;;;;;;;;;;;;;;;1033830;28;1668;-49
2022/08/07 03:12:36;;;;;;;;;;;;;;;;;;1034201;28;1722;-52
2022/08/07 03:13:07;;;;;;;;;;;;;;;;;;1033614;28;1877;-50
2022/08/07 03:13:37;;;;;;;;;;;;;;;;;;1032955;28;2913;-50
2022/08/07 03:14:07;;;;;;;;;;;;;;;;;;1030110;28;1672;-51
2022/08/07 03:14:38;;;;;;;;;;;;;;;;;;1030186;28;1856;-50
2022/08/07 03:15:09;;;;;;;;;;;;;;;;;;1028216;28;3572;-48
2022/08/07 03:15:39;;;;;;;;;;;;;;;;;;1028444;28;3091;-49
2022/08/07 03:16:10;;;;;;;;;;;;;;;;;;1029199;28;2991;-49
2022/08/07 03:16:41;;;;;;;;;;;;;;;;;;1029370;28;3982;-53
2022/08/07 03:17:11;;;;;;;;;;;;;;;;;;1030058;28;1429;-51
2022/08/07 03:17:42;;;;;;;;;;;;;;;;;;1030508;28;1598;-48
2022/08/07 03:18:13;;;;;;;;;;;;;;;;;;1029535;28;2275;-51
2022/08/07 03:18:43;;;;;;;;;;;;;;;;;;1030427;28;2028;-51
2022/08/07 03:19:14;;;;;;;;;;;;;;;;;;1030007;28;1827;-49
2022/08/07 03:19:57;;;;;;;;;;;;;;;;;;1030019;28;1635;-52
2022/08/07 03:20:34;;;;;;;;;;;;;;;;;;1029125;28;2203;-53
2022/08/07 03:21:05;;;;;;;;;;;;;;;;;;1030602;28;1699;-49
2022/08/07 03:21:36;;;;;;;;;;;;;;;;;;1030341;28;1822;-50
2022/08/07 03:22:06;;;;;;;;;;;;;;;;;;1030768;28;1154;-54
2022/08/07 03:22:38;;;;;;;;;;;;;;;;;;1030732;28;1689;-51
2022/08/07 03:23:09;;;;;;;;;;;;;;;;;;1033517;28;3300;-50
2022/08/07 03:23:40;;;;;;;;;;;;;;;;;;1032530;28;2944;-53
2022/08/07 03:24:10;;;;;;;;;;;;;;;;;;1033970;28;1707;-49
2022/08/07 03:24:41;;;;;;;;;;;;;;;;;;1032969;28;1914;-54
2022/08/07 03:25:11;;;;;;;;;;;;;;;;;;1032822;28;3531;-49
2022/08/07 03:25:41;;;;;;;;;;;;;;;;;;1030139;28;1707;-51
2022/08/07 03:26:13;;;;;;;;;;;;;;;;;;1030540;28;1591;-51
2022/08/07 03:26:44;;;;;;;;;;;;;;;;;;1029545;28;2223;-49
2022/08/07 03:27:15;;;;;;;;;;;;;;;;;;1030354;28;1649;-51
2022/08/07 03:27:47;;;;;;;;;;;;;;;;;;1029759;28;1833;-48
2022/08/07 03:28:18;;;;;;;;;;;;;;;;;;1030111;28;2183;-51
2022/08/07 03:28:49;;;;;;;;;;;;;;;;;;1029231;28;2293;-51
2022/08/07 03:29:20;;;;;;;;;;;;;;;;;;1029806;28;2524;-48
2022/08/07 03:29:51;;;;;;;;;;;;;;;;;;1030010;28;1780;-49
2022/08/07 03:30:22;;;;;;;;;;;;;;;;;;1029997;28;3039;-49
2022/08/07 03:31:17;;;;;;;;;;;;;;;;;;1029711;28;1738;-49
2022/08/07 03:31:43;;;;;;;;;;;;;;;;;;1030852;28;1561;-48
2022/08/07 03:32:14;;;;;;;;;;;;;;;;;;1029308;28;1765;-52
2022/08/07 03:32:46;;;;;;;;;;;;;;;;;;1030215;28;1605;-51
2022/08/07 03:33:17;;;;;;;;;;;;;;;;;;1029811;28;1911;-49
2022/08/07 03:33:52;;;;;;;;;;;;;;;;;;1029897;28;3280;-50
2022/08/07 03:34:24;;;;;;;;;;;;;;;;;;1034086;28;1593;-50
2022/08/07 03:34:56;;;;;;;;;;;;;;;;;;1033504;28;1681;-49
2022/08/07 03:35:27;;;;;;;;;;;;;;;;;;1031369;28;3392;-52
2022/08/07 03:35:58;;;;;;;;;;;;;;;;;;1033476;28;1763;-51
2022/08/07 03:36:29;;;;;;;;;;;;;;;;;;1029956;28;1538;-51
2022/08/07 03:37:01;;;;;;;;;;;;;;;;;;1029548;28;2124;-51
2022/08/07 03:37:33;;;;;;;;;;;;;;;;;;1029053;28;3307;-51
2022/08/07 03:38:06;;;;;;;;;;;;;;;;;;1027628;28;2940;-49
2022/08/07 03:38:38;;;;;;;;;;;;;;;;;;1029927;28;3012;-51
2022/08/07 03:39:10;;;;;;;;;;;;;;;;;;1028515;28;2263;-48